sensor_id;sensor_type;location;lat;lon;timestamp;P1;durP1;ratioP1;P2;durP2;ratioP2
55314;SDS011;41619;42.816;23.226;2022-10-24T00:02:13;30.85;;;14.40;;
55314;SDS011;41619;42.816;23.226;2022-10-24T00:04:39;28.33;;;13.85;;
55314;SDS011;41619;42.816;23.226;2022-10-24T00:07:05;28.17;;;13.88;;
55314;SDS011;41619;42.816;23.226;2022-10-24T00:09:32;19.63;;;11.85;;
55314;SDS011;41619;42.816;23.226;2022-10-24T00:11:58;24.65;;;11.95;;
55314;SDS011;41619;42.816;23.226;2022-10-24T00:14:23;24.58;;;12.27;;
55314;SDS011;41619;42.816;23.226;2022-10-24T00:16:49;28.00;;;11.90;;
55314;SDS011;41619;42.816;23.226;2022-10-24T00:19:15;27.65;;;12.02;;
55314;SDS011;41619;42.816;23.226;2022-10-24T00:21:40;21.48;;;11.38;;
55314;SDS011;41619;42.816;23.226;2022-10-24T00:24:06;29.52;;;12.70;;
55314;SDS011;41619;42.816;23.226;2022-10-24T00:26:32;24.75;;;11.90;;
55314;SDS011;41619;42.816;23.226;2022-10-24T00:28:59;27.63;;;13.65;;
55314;SDS011;41619;42.816;23.226;2022-10-24T00:31:24;25.52;;;12.85;;
55314;SDS011;41619;42.816;23.226;2022-10-24T00:33:50;27.70;;;12.07;;
55314;SDS011;41619;42.816;23.226;2022-10-24T00:36:17;24.33;;;12.35;;
55314;SDS011;41619;42.816;23.226;2022-10-24T00:41:13;23.00;;;11.27;;
55314;SDS011;41619;42.816;23.226;2022-10-24T00:43:40;20.83;;;10.77;;
55314;SDS011;41619;42.816;23.226;2022-10-24T00:46:05;24.35;;;12.00;;
55314;SDS011;41619;42.816;23.226;2022-10-24T00:53:48;21.67;;;12.38;;
55314;SDS011;41619;42.816;23.226;2022-10-24T00:56:17;23.42;;;13.23;;
55314;SDS011;41619;42.816;23.226;2022-10-24T00:58:45;26.73;;;12.38;;
55314;SDS011;41619;42.816;23.226;2022-10-24T01:01:12;25.02;;;12.02;;
55314;SDS011;41619;42.816;23.226;2022-10-24T01:03:38;22.63;;;12.63;;
55314;SDS011;41619;42.816;23.226;2022-10-24T01:08:42;27.52;;;13.68;;
55314;SDS011;41619;42.816;23.226;2022-10-24T01:16:37;26.05;;;14.40;;
55314;SDS011;41619;42.816;23.226;2022-10-24T01:19:31;30.88;;;13.93;;
55314;SDS011;41619;42.816;23.226;2022-10-24T01:22:07;27.27;;;12.98;;
55314;SDS011;41619;42.816;23.226;2022-10-24T01:30:19;28.45;;;12.50;;
55314;SDS011;41619;42.816;23.226;2022-10-24T01:41:05;23.35;;;13.23;;
55314;SDS011;41619;42.816;23.226;2022-10-24T01:43:36;29.77;;;12.38;;
55314;SDS011;41619;42.816;23.226;2022-10-24T01:46:17;24.90;;;12.10;;
55314;SDS011;41619;42.816;23.226;2022-10-24T01:48:55;22.25;;;11.57;;
55314;SDS011;41619;42.816;23.226;2022-10-24T01:51:29;22.38;;;11.68;;
55314;SDS011;41619;42.816;23.226;2022-10-24T01:53:57;22.90;;;11.93;;
55314;SDS011;41619;42.816;23.226;2022-10-24T01:56:25;19.80;;;11.02;;
55314;SDS011;41619;42.816;23.226;2022-10-24T01:58:51;22.40;;;10.90;;
55314;SDS011;41619;42.816;23.226;2022-10-24T02:01:17;17.42;;;9.95;;
55314;SDS011;41619;42.816;23.226;2022-10-24T02:03:49;20.00;;;10.75;;
55314;SDS011;41619;42.816;23.226;2022-10-24T02:06:32;20.42;;;10.57;;
55314;SDS011;41619;42.816;23.226;2022-10-24T02:09:03;16.00;;;9.85;;
55314;SDS011;41619;42.816;23.226;2022-10-24T02:11:33;24.40;;;10.48;;
55314;SDS011;41619;42.816;23.226;2022-10-24T02:14:09;18.83;;;9.75;;
55314;SDS011;41619;42.816;23.226;2022-10-24T02:16:56;19.73;;;10.50;;
55314;SDS011;41619;42.816;23.226;2022-10-24T02:19:22;21.65;;;10.32;;
55314;SDS011;41619;42.816;23.226;2022-10-24T02:24:32;24.30;;;12.50;;
55314;SDS011;41619;42.816;23.226;2022-10-24T02:27:07;32.10;;;16.90;;
55314;SDS011;41619;42.816;23.226;2022-10-24T02:29:49;69.88;;;38.35;;
55314;SDS011;41619;42.816;23.226;2022-10-24T02:32:39;88.10;;;54.67;;
55314;SDS011;41619;42.816;23.226;2022-10-24T02:35:08;124.07;;;78.47;;
55314;SDS011;41619;42.816;23.226;2022-10-24T02:37:35;93.77;;;57.17;;
55314;SDS011;41619;42.816;23.226;2022-10-24T02:40:07;72.28;;;44.60;;
55314;SDS011;41619;42.816;23.226;2022-10-24T02:42:34;48.53;;;31.27;;
55314;SDS011;41619;42.816;23.226;2022-10-24T02:45:02;36.15;;;22.15;;
55314;SDS011;41619;42.816;23.226;2022-10-24T02:47:28;33.47;;;15.90;;
55314;SDS011;41619;42.816;23.226;2022-10-24T02:49:55;18.67;;;11.25;;
55314;SDS011;41619;42.816;23.226;2022-10-24T02:52:21;28.08;;;11.70;;
55314;SDS011;41619;42.816;23.226;2022-10-24T02:54:48;22.67;;;11.48;;
55314;SDS011;41619;42.816;23.226;2022-10-24T02:57:14;22.15;;;13.05;;
55314;SDS011;41619;42.816;23.226;2022-10-24T02:59:39;25.40;;;13.38;;
55314;SDS011;41619;42.816;23.226;2022-10-24T03:02:05;18.60;;;12.15;;
55314;SDS011;41619;42.816;23.226;2022-10-24T03:04:30;25.50;;;12.77;;
55314;SDS011;41619;42.816;23.226;2022-10-24T03:06:56;31.63;;;12.70;;
55314;SDS011;41619;42.816;23.226;2022-10-24T03:09:21;28.52;;;12.75;;
55314;SDS011;41619;42.816;23.226;2022-10-24T03:11:46;24.08;;;12.77;;
55314;SDS011;41619;42.816;23.226;2022-10-24T03:14:12;19.85;;;12.40;;
55314;SDS011;41619;42.816;23.226;2022-10-24T03:16:37;23.67;;;12.57;;
55314;SDS011;41619;42.816;23.226;2022-10-24T03:19:03;20.38;;;12.30;;
55314;SDS011;41619;42.816;23.226;2022-10-24T03:21:28;23.17;;;11.68;;
55314;SDS011;41619;42.816;23.226;2022-10-24T03:23:54;25.55;;;13.10;;
55314;SDS011;41619;42.816;23.226;2022-10-24T03:26:19;21.40;;;11.18;;
55314;SDS011;41619;42.816;23.226;2022-10-24T03:28:45;22.95;;;10.75;;
55314;SDS011;41619;42.816;23.226;2022-10-24T03:31:10;22.58;;;10.02;;
55314;SDS011;41619;42.816;23.226;2022-10-24T03:33:35;22.67;;;11.40;;
55314;SDS011;41619;42.816;23.226;2022-10-24T03:36:01;17.85;;;9.57;;
55314;SDS011;41619;42.816;23.226;2022-10-24T03:38:26;21.75;;;10.75;;
55314;SDS011;41619;42.816;23.226;2022-10-24T03:40:52;25.17;;;10.43;;
55314;SDS011;41619;42.816;23.226;2022-10-24T03:43:17;19.27;;;10.10;;
55314;SDS011;41619;42.816;23.226;2022-10-24T03:45:43;19.70;;;9.85;;
55314;SDS011;41619;42.816;23.226;2022-10-24T03:48:09;26.52;;;12.23;;
55314;SDS011;41619;42.816;23.226;2022-10-24T03:50:35;20.50;;;11.70;;
55314;SDS011;41619;42.816;23.226;2022-10-24T03:53:01;21.25;;;11.60;;
55314;SDS011;41619;42.816;23.226;2022-10-24T03:55:27;22.80;;;11.50;;
55314;SDS011;41619;42.816;23.226;2022-10-24T03:57:53;22.67;;;11.23;;
55314;SDS011;41619;42.816;23.226;2022-10-24T04:00:19;21.25;;;11.77;;
55314;SDS011;41619;42.816;23.226;2022-10-24T04:02:45;19.50;;;10.55;;
55314;SDS011;41619;42.816;23.226;2022-10-24T04:05:11;21.45;;;11.38;;
55314;SDS011;41619;42.816;23.226;2022-10-24T04:07:37;23.35;;;11.88;;
55314;SDS011;41619;42.816;23.226;2022-10-24T04:10:03;33.15;;;12.70;;
55314;SDS011;41619;42.816;23.226;2022-10-24T04:12:29;28.60;;;11.07;;
55314;SDS011;41619;42.816;23.226;2022-10-24T04:14:55;28.33;;;10.82;;
55314;SDS011;41619;42.816;23.226;2022-10-24T04:17:20;30.75;;;11.23;;
55314;SDS011;41619;42.816;23.226;2022-10-24T04:19:46;22.77;;;9.68;;
55314;SDS011;41619;42.816;23.226;2022-10-24T04:22:11;21.58;;;11.70;;
55314;SDS011;41619;42.816;23.226;2022-10-24T04:24:37;22.58;;;11.25;;
55314;SDS011;41619;42.816;23.226;2022-10-24T04:27:03;26.05;;;11.48;;
55314;SDS011;41619;42.816;23.226;2022-10-24T04:29:32;29.00;;;12.75;;
55314;SDS011;41619;42.816;23.226;2022-10-24T04:31:57;30.00;;;13.45;;
55314;SDS011;41619;42.816;23.226;2022-10-24T04:34:23;30.25;;;14.05;;
55314;SDS011;41619;42.816;23.226;2022-10-24T04:36:48;29.40;;;13.75;;
55314;SDS011;41619;42.816;23.226;2022-10-24T04:39:14;34.92;;;13.77;;
55314;SDS011;41619;42.816;23.226;2022-10-24T04:41:39;38.33;;;12.98;;
55314;SDS011;41619;42.816;23.226;2022-10-24T04:44:05;31.85;;;13.35;;
55314;SDS011;41619;42.816;23.226;2022-10-24T04:46:30;34.15;;;13.43;;
55314;SDS011;41619;42.816;23.226;2022-10-24T04:48:56;38.45;;;13.65;;
55314;SDS011;41619;42.816;23.226;2022-10-24T04:51:21;33.72;;;13.63;;
55314;SDS011;41619;42.816;23.226;2022-10-24T04:53:46;24.75;;;12.32;;
55314;SDS011;41619;42.816;23.226;2022-10-24T04:56:12;27.60;;;12.55;;
55314;SDS011;41619;42.816;23.226;2022-10-24T04:58:37;28.55;;;11.65;;
55314;SDS011;41619;42.816;23.226;2022-10-24T05:01:03;20.92;;;10.15;;
55314;SDS011;41619;42.816;23.226;2022-10-24T05:03:28;25.17;;;10.38;;
55314;SDS011;41619;42.816;23.226;2022-10-24T05:05:54;20.67;;;10.48;;
55314;SDS011;41619;42.816;23.226;2022-10-24T05:08:19;28.92;;;10.68;;
55314;SDS011;41619;42.816;23.226;2022-10-24T05:10:46;23.58;;;10.52;;
55314;SDS011;41619;42.816;23.226;2022-10-24T05:13:11;28.30;;;12.02;;
55314;SDS011;41619;42.816;23.226;2022-10-24T05:15:36;42.50;;;11.60;;
55314;SDS011;41619;42.816;23.226;2022-10-24T05:18:02;27.27;;;12.98;;
55314;SDS011;41619;42.816;23.226;2022-10-24T05:20:28;35.17;;;11.73;;
55314;SDS011;41619;42.816;23.226;2022-10-24T05:22:54;56.47;;;17.05;;
55314;SDS011;41619;42.816;23.226;2022-10-24T05:25:19;82.47;;;26.40;;
55314;SDS011;41619;42.816;23.226;2022-10-24T05:27:45;85.95;;;27.92;;
55314;SDS011;41619;42.816;23.226;2022-10-24T05:30:10;58.15;;;21.50;;
55314;SDS011;41619;42.816;23.226;2022-10-24T05:32:36;47.28;;;18.00;;
55314;SDS011;41619;42.816;23.226;2022-10-24T05:35:01;43.70;;;13.73;;
55314;SDS011;41619;42.816;23.226;2022-10-24T05:37:28;29.17;;;12.73;;
55314;SDS011;41619;42.816;23.226;2022-10-24T05:39:53;26.30;;;11.80;;
55314;SDS011;41619;42.816;23.226;2022-10-24T05:42:18;37.88;;;12.82;;
55314;SDS011;41619;42.816;23.226;2022-10-24T05:44:44;33.80;;;12.75;;
55314;SDS011;41619;42.816;23.226;2022-10-24T05:47:09;27.42;;;12.68;;
55314;SDS011;41619;42.816;23.226;2022-10-24T05:49:34;31.10;;;14.55;;
55314;SDS011;41619;42.816;23.226;2022-10-24T05:52:00;31.25;;;13.75;;
55314;SDS011;41619;42.816;23.226;2022-10-24T05:54:25;42.45;;;15.00;;
55314;SDS011;41619;42.816;23.226;2022-10-24T05:56:51;34.75;;;14.70;;
55314;SDS011;41619;42.816;23.226;2022-10-24T05:59:16;29.95;;;14.63;;
55314;SDS011;41619;42.816;23.226;2022-10-24T06:01:42;27.60;;;13.60;;
55314;SDS011;41619;42.816;23.226;2022-10-24T06:04:07;36.30;;;13.57;;
55314;SDS011;41619;42.816;23.226;2022-10-24T06:06:36;27.48;;;13.48;;
55314;SDS011;41619;42.816;23.226;2022-10-24T06:09:03;32.90;;;13.60;;
55314;SDS011;41619;42.816;23.226;2022-10-24T06:11:28;30.45;;;13.13;;
55314;SDS011;41619;42.816;23.226;2022-10-24T06:13:54;34.53;;;12.20;;
55314;SDS011;41619;42.816;23.226;2022-10-24T06:16:19;31.95;;;12.45;;
55314;SDS011;41619;42.816;23.226;2022-10-24T06:18:45;32.92;;;12.32;;
55314;SDS011;41619;42.816;23.226;2022-10-24T06:21:10;22.20;;;11.18;;
55314;SDS011;41619;42.816;23.226;2022-10-24T06:23:37;26.55;;;12.88;;
55314;SDS011;41619;42.816;23.226;2022-10-24T06:26:06;22.98;;;11.73;;
55314;SDS011;41619;42.816;23.226;2022-10-24T06:28:32;19.80;;;10.13;;
55314;SDS011;41619;42.816;23.226;2022-10-24T06:30:58;17.92;;;10.65;;
55314;SDS011;41619;42.816;23.226;2022-10-24T06:33:27;23.33;;;10.85;;
55314;SDS011;41619;42.816;23.226;2022-10-24T06:35:58;21.25;;;9.10;;
55314;SDS011;41619;42.816;23.226;2022-10-24T06:38:24;18.10;;;9.05;;
55314;SDS011;41619;42.816;23.226;2022-10-24T06:40:49;26.63;;;11.32;;
55314;SDS011;41619;42.816;23.226;2022-10-24T06:43:15;28.63;;;11.40;;
55314;SDS011;41619;42.816;23.226;2022-10-24T06:45:43;25.73;;;8.73;;
55314;SDS011;41619;42.816;23.226;2022-10-24T06:48:09;17.02;;;9.95;;
55314;SDS011;41619;42.816;23.226;2022-10-24T06:50:35;31.63;;;9.85;;
55314;SDS011;41619;42.816;23.226;2022-10-24T06:53:03;19.42;;;10.23;;
55314;SDS011;41619;42.816;23.226;2022-10-24T06:55:29;22.05;;;12.98;;
55314;SDS011;41619;42.816;23.226;2022-10-24T06:57:54;26.13;;;11.50;;
55314;SDS011;41619;42.816;23.226;2022-10-24T07:00:19;25.27;;;8.77;;
55314;SDS011;41619;42.816;23.226;2022-10-24T07:02:45;15.88;;;8.43;;
55314;SDS011;41619;42.816;23.226;2022-10-24T07:05:10;17.90;;;8.48;;
55314;SDS011;41619;42.816;23.226;2022-10-24T07:07:38;20.13;;;9.25;;
55314;SDS011;41619;42.816;23.226;2022-10-24T07:10:05;19.00;;;8.82;;
55314;SDS011;41619;42.816;23.226;2022-10-24T07:12:31;27.90;;;9.50;;
55314;SDS011;41619;42.816;23.226;2022-10-24T07:14:56;17.85;;;9.35;;
55314;SDS011;41619;42.816;23.226;2022-10-24T07:17:21;18.17;;;9.13;;
55314;SDS011;41619;42.816;23.226;2022-10-24T07:19:53;28.23;;;11.65;;
55314;SDS011;41619;42.816;23.226;2022-10-24T07:22:19;24.88;;;11.10;;
55314;SDS011;41619;42.816;23.226;2022-10-24T07:24:44;34.35;;;12.45;;
55314;SDS011;41619;42.816;23.226;2022-10-24T07:27:10;23.73;;;12.55;;
55314;SDS011;41619;42.816;23.226;2022-10-24T07:29:37;29.50;;;12.50;;
55314;SDS011;41619;42.816;23.226;2022-10-24T07:32:03;38.30;;;13.90;;
55314;SDS011;41619;42.816;23.226;2022-10-24T07:34:29;29.08;;;13.88;;
55314;SDS011;41619;42.816;23.226;2022-10-24T07:36:54;28.38;;;12.90;;
55314;SDS011;41619;42.816;23.226;2022-10-24T07:39:19;28.38;;;12.63;;
55314;SDS011;41619;42.816;23.226;2022-10-24T07:41:45;32.13;;;12.57;;
55314;SDS011;41619;42.816;23.226;2022-10-24T07:44:10;29.95;;;13.25;;
55314;SDS011;41619;42.816;23.226;2022-10-24T07:46:36;27.45;;;11.73;;
55314;SDS011;41619;42.816;23.226;2022-10-24T07:49:02;21.23;;;11.52;;
55314;SDS011;41619;42.816;23.226;2022-10-24T07:51:27;23.08;;;11.00;;
55314;SDS011;41619;42.816;23.226;2022-10-24T07:53:54;25.38;;;11.02;;
55314;SDS011;41619;42.816;23.226;2022-10-24T07:56:21;24.27;;;10.00;;
55314;SDS011;41619;42.816;23.226;2022-10-24T07:58:46;20.02;;;9.20;;
55314;SDS011;41619;42.816;23.226;2022-10-24T08:01:16;21.58;;;9.93;;
55314;SDS011;41619;42.816;23.226;2022-10-24T08:03:43;22.33;;;8.15;;
55314;SDS011;41619;42.816;23.226;2022-10-24T08:06:10;15.02;;;9.10;;
55314;SDS011;41619;42.816;23.226;2022-10-24T08:08:40;21.45;;;9.43;;
55314;SDS011;41619;42.816;23.226;2022-10-24T08:11:07;21.02;;;8.50;;
55314;SDS011;41619;42.816;23.226;2022-10-24T08:13:43;12.50;;;7.85;;
55314;SDS011;41619;42.816;23.226;2022-10-24T08:16:10;18.70;;;8.35;;
55314;SDS011;41619;42.816;23.226;2022-10-24T08:18:37;17.50;;;8.25;;
55314;SDS011;41619;42.816;23.226;2022-10-24T08:21:03;13.32;;;6.80;;
55314;SDS011;41619;42.816;23.226;2022-10-24T08:25:58;21.10;;;7.82;;
55314;SDS011;41619;42.816;23.226;2022-10-24T08:28:24;13.57;;;7.20;;
55314;SDS011;41619;42.816;23.226;2022-10-24T08:30:56;22.77;;;8.10;;
55314;SDS011;41619;42.816;23.226;2022-10-24T08:33:22;13.27;;;6.75;;
55314;SDS011;41619;42.816;23.226;2022-10-24T08:35:48;14.30;;;6.68;;
55314;SDS011;41619;42.816;23.226;2022-10-24T08:38:13;17.85;;;7.25;;
55314;SDS011;41619;42.816;23.226;2022-10-24T08:40:38;15.38;;;6.72;;
55314;SDS011;41619;42.816;23.226;2022-10-24T08:43:04;21.77;;;7.00;;
55314;SDS011;41619;42.816;23.226;2022-10-24T08:45:34;10.57;;;5.68;;
55314;SDS011;41619;42.816;23.226;2022-10-24T08:48:07;14.80;;;6.65;;
55314;SDS011;41619;42.816;23.226;2022-10-24T08:50:36;16.13;;;7.18;;
55314;SDS011;41619;42.816;23.226;2022-10-24T08:53:17;14.48;;;6.40;;
55314;SDS011;41619;42.816;23.226;2022-10-24T08:55:50;13.40;;;6.38;;
55314;SDS011;41619;42.816;23.226;2022-10-24T08:58:24;15.77;;;6.00;;
55314;SDS011;41619;42.816;23.226;2022-10-24T09:00:53;15.55;;;5.43;;
55314;SDS011;41619;42.816;23.226;2022-10-24T09:06:07;13.68;;;5.32;;
55314;SDS011;41619;42.816;23.226;2022-10-24T09:09:03;13.02;;;5.55;;
55314;SDS011;41619;42.816;23.226;2022-10-24T09:11:44;18.75;;;5.80;;
55314;SDS011;41619;42.816;23.226;2022-10-24T09:14:12;10.50;;;5.32;;
55314;SDS011;41619;42.816;23.226;2022-10-24T09:16:39;18.23;;;5.95;;
55314;SDS011;41619;42.816;23.226;2022-10-24T09:21:38;11.65;;;5.25;;
55314;SDS011;41619;42.816;23.226;2022-10-24T09:24:07;13.38;;;5.90;;
55314;SDS011;41619;42.816;23.226;2022-10-24T09:26:41;9.52;;;5.40;;
55314;SDS011;41619;42.816;23.226;2022-10-24T09:29:09;18.92;;;5.63;;
55314;SDS011;41619;42.816;23.226;2022-10-24T09:31:35;10.60;;;4.95;;
55314;SDS011;41619;42.816;23.226;2022-10-24T09:34:00;14.95;;;6.07;;
55314;SDS011;41619;42.816;23.226;2022-10-24T09:36:28;17.35;;;5.65;;
55314;SDS011;41619;42.816;23.226;2022-10-24T09:38:54;14.60;;;5.63;;
55314;SDS011;41619;42.816;23.226;2022-10-24T09:41:21;15.02;;;5.28;;
55314;SDS011;41619;42.816;23.226;2022-10-24T09:43:50;13.65;;;5.10;;
55314;SDS011;41619;42.816;23.226;2022-10-24T09:51:40;21.65;;;6.22;;
55314;SDS011;41619;42.816;23.226;2022-10-24T09:54:26;15.32;;;5.28;;
55314;SDS011;41619;42.816;23.226;2022-10-24T09:59:32;14.52;;;6.53;;
55314;SDS011;41619;42.816;23.226;2022-10-24T10:02:24;12.35;;;6.18;;
55314;SDS011;41619;42.816;23.226;2022-10-24T10:07:32;20.70;;;6.10;;
55314;SDS011;41619;42.816;23.226;2022-10-24T10:12:44;20.40;;;5.60;;
55314;SDS011;41619;42.816;23.226;2022-10-24T10:18:01;19.98;;;6.25;;
55314;SDS011;41619;42.816;23.226;2022-10-24T10:20:40;15.88;;;6.22;;
55314;SDS011;41619;42.816;23.226;2022-10-24T10:25:47;15.13;;;5.75;;
55314;SDS011;41619;42.816;23.226;2022-10-24T10:28:20;20.92;;;6.15;;
55314;SDS011;41619;42.816;23.226;2022-10-24T10:30:51;19.10;;;5.68;;
55314;SDS011;41619;42.816;23.226;2022-10-24T10:36:04;18.05;;;5.18;;
55314;SDS011;41619;42.816;23.226;2022-10-24T10:47:17;15.95;;;5.43;;
55314;SDS011;41619;42.816;23.226;2022-10-24T10:49:58;12.63;;;5.40;;
55314;SDS011;41619;42.816;23.226;2022-10-24T10:52:31;19.23;;;5.68;;
55314;SDS011;41619;42.816;23.226;2022-10-24T11:01:23;17.05;;;5.35;;
55314;SDS011;41619;42.816;23.226;2022-10-24T11:06:39;18.30;;;5.00;;
55314;SDS011;41619;42.816;23.226;2022-10-24T11:09:32;18.40;;;4.72;;
55314;SDS011;41619;42.816;23.226;2022-10-24T11:14:37;18.27;;;4.80;;
55314;SDS011;41619;42.816;23.226;2022-10-24T11:17:25;19.90;;;5.15;;
55314;SDS011;41619;42.816;23.226;2022-10-24T11:20:04;13.55;;;4.78;;
55314;SDS011;41619;42.816;23.226;2022-10-24T11:22:43;21.15;;;5.93;;
55314;SDS011;41619;42.816;23.226;2022-10-24T11:25:17;18.08;;;5.25;;
55314;SDS011;41619;42.816;23.226;2022-10-24T11:28:00;15.30;;;5.32;;
55314;SDS011;41619;42.816;23.226;2022-10-24T11:30:37;20.63;;;5.57;;
55314;SDS011;41619;42.816;23.226;2022-10-24T11:33:10;16.63;;;6.03;;
55314;SDS011;41619;42.816;23.226;2022-10-24T11:35:50;22.50;;;6.28;;
55314;SDS011;41619;42.816;23.226;2022-10-24T11:38:24;18.63;;;6.18;;
55314;SDS011;41619;42.816;23.226;2022-10-24T11:40:52;27.13;;;7.30;;
55314;SDS011;41619;42.816;23.226;2022-10-24T11:43:29;27.25;;;7.10;;
55314;SDS011;41619;42.816;23.226;2022-10-24T11:48:41;17.67;;;5.57;;
55314;SDS011;41619;42.816;23.226;2022-10-24T11:59:19;19.15;;;5.70;;
55314;SDS011;41619;42.816;23.226;2022-10-24T12:13:00;23.40;;;4.47;;
55314;SDS011;41619;42.816;23.226;2022-10-24T12:16:04;23.98;;;5.40;;
55314;SDS011;41619;42.816;23.226;2022-10-24T12:18:44;23.80;;;4.85;;
55314;SDS011;41619;42.816;23.226;2022-10-24T12:21:14;21.27;;;5.23;;
55314;SDS011;41619;42.816;23.226;2022-10-24T12:23:42;19.65;;;4.90;;
55314;SDS011;41619;42.816;23.226;2022-10-24T12:26:24;18.48;;;4.20;;
55314;SDS011;41619;42.816;23.226;2022-10-24T12:28:55;21.42;;;4.88;;
55314;SDS011;41619;42.816;23.226;2022-10-24T12:31:33;19.85;;;5.18;;
55314;SDS011;41619;42.816;23.226;2022-10-24T12:39:43;25.65;;;5.80;;
55314;SDS011;41619;42.816;23.226;2022-10-24T12:48:11;17.33;;;4.63;;
55314;SDS011;41619;42.816;23.226;2022-10-24T12:51:03;27.30;;;4.95;;
55314;SDS011;41619;42.816;23.226;2022-10-24T12:58:24;21.02;;;4.57;;
55314;SDS011;41619;42.816;23.226;2022-10-24T13:00:57;20.73;;;5.43;;
55314;SDS011;41619;42.816;23.226;2022-10-24T13:09:20;36.00;;;6.57;;
55314;SDS011;41619;42.816;23.226;2022-10-24T13:20:43;34.10;;;5.55;;
55314;SDS011;41619;42.816;23.226;2022-10-24T13:23:20;26.88;;;6.25;;
55314;SDS011;41619;42.816;23.226;2022-10-24T13:25:50;25.85;;;5.40;;
55314;SDS011;41619;42.816;23.226;2022-10-24T13:30:46;28.92;;;6.22;;
55314;SDS011;41619;42.816;23.226;2022-10-24T13:35:54;21.92;;;5.60;;
55314;SDS011;41619;42.816;23.226;2022-10-24T13:38:21;33.55;;;5.35;;
55314;SDS011;41619;42.816;23.226;2022-10-24T13:40:48;24.20;;;4.65;;
55314;SDS011;41619;42.816;23.226;2022-10-24T13:43:14;29.55;;;5.65;;
55314;SDS011;41619;42.816;23.226;2022-10-24T13:48:17;23.83;;;5.60;;
55314;SDS011;41619;42.816;23.226;2022-10-24T13:50:47;30.80;;;5.32;;
55314;SDS011;41619;42.816;23.226;2022-10-24T13:53:24;26.60;;;5.00;;
55314;SDS011;41619;42.816;23.226;2022-10-24T13:55:55;18.33;;;5.28;;
55314;SDS011;41619;42.816;23.226;2022-10-24T13:58:26;22.50;;;5.30;;
55314;SDS011;41619;42.816;23.226;2022-10-24T14:00:57;38.22;;;7.45;;
55314;SDS011;41619;42.816;23.226;2022-10-24T14:03:25;25.33;;;6.10;;
55314;SDS011;41619;42.816;23.226;2022-10-24T14:06:14;27.15;;;6.65;;
55314;SDS011;41619;42.816;23.226;2022-10-24T14:08:48;18.77;;;5.63;;
55314;SDS011;41619;42.816;23.226;2022-10-24T14:11:17;34.13;;;6.10;;
55314;SDS011;41619;42.816;23.226;2022-10-24T14:13:48;32.30;;;5.93;;
55314;SDS011;41619;42.816;23.226;2022-10-24T14:16:16;31.65;;;6.55;;
55314;SDS011;41619;42.816;23.226;2022-10-24T14:18:48;33.55;;;7.43;;
55314;SDS011;41619;42.816;23.226;2022-10-24T14:21:18;31.25;;;6.72;;
55314;SDS011;41619;42.816;23.226;2022-10-24T14:23:52;24.55;;;5.93;;
55314;SDS011;41619;42.816;23.226;2022-10-24T14:26:23;38.92;;;7.47;;
55314;SDS011;41619;42.816;23.226;2022-10-24T14:28:50;38.47;;;6.97;;
55314;SDS011;41619;42.816;23.226;2022-10-24T14:31:23;33.05;;;7.07;;
55314;SDS011;41619;42.816;23.226;2022-10-24T14:33:52;34.90;;;8.80;;
55314;SDS011;41619;42.816;23.226;2022-10-24T14:36:21;22.40;;;6.55;;
55314;SDS011;41619;42.816;23.226;2022-10-24T14:38:50;28.85;;;6.43;;
55314;SDS011;41619;42.816;23.226;2022-10-24T14:41:21;34.33;;;6.05;;
55314;SDS011;41619;42.816;23.226;2022-10-24T14:43:51;34.38;;;7.13;;
55314;SDS011;41619;42.816;23.226;2022-10-24T14:46:26;24.35;;;5.25;;
55314;SDS011;41619;42.816;23.226;2022-10-24T14:49:18;27.95;;;6.03;;
55314;SDS011;41619;42.816;23.226;2022-10-24T14:51:51;34.58;;;6.60;;
55314;SDS011;41619;42.816;23.226;2022-10-24T14:56:45;21.73;;;6.93;;
55314;SDS011;41619;42.816;23.226;2022-10-24T14:59:22;43.65;;;6.80;;
55314;SDS011;41619;42.816;23.226;2022-10-24T15:01:59;50.95;;;7.05;;
55314;SDS011;41619;42.816;23.226;2022-10-24T15:04:29;22.10;;;6.20;;
55314;SDS011;41619;42.816;23.226;2022-10-24T15:12:24;19.50;;;6.63;;
55314;SDS011;41619;42.816;23.226;2022-10-24T15:14:51;32.47;;;7.05;;
55314;SDS011;41619;42.816;23.226;2022-10-24T15:19:56;30.13;;;7.43;;
55314;SDS011;41619;42.816;23.226;2022-10-24T15:24:53;36.00;;;8.00;;
55314;SDS011;41619;42.816;23.226;2022-10-24T15:29:52;41.95;;;10.35;;
55314;SDS011;41619;42.816;23.226;2022-10-24T15:32:18;38.97;;;9.73;;
55314;SDS011;41619;42.816;23.226;2022-10-24T15:34:43;44.53;;;10.43;;
55314;SDS011;41619;42.816;23.226;2022-10-24T15:37:19;35.40;;;11.27;;
55314;SDS011;41619;42.816;23.226;2022-10-24T15:39:46;41.95;;;12.15;;
55314;SDS011;41619;42.816;23.226;2022-10-24T15:42:12;44.10;;;12.15;;
55314;SDS011;41619;42.816;23.226;2022-10-24T15:44:38;33.10;;;12.07;;
55314;SDS011;41619;42.816;23.226;2022-10-24T15:47:03;66.05;;;17.08;;
55314;SDS011;41619;42.816;23.226;2022-10-24T15:49:29;51.60;;;12.32;;
55314;SDS011;41619;42.816;23.226;2022-10-24T15:51:55;55.47;;;12.75;;
55314;SDS011;41619;42.816;23.226;2022-10-24T15:54:23;52.27;;;13.13;;
55314;SDS011;41619;42.816;23.226;2022-10-24T15:56:51;62.75;;;14.85;;
55314;SDS011;41619;42.816;23.226;2022-10-24T15:59:17;61.58;;;16.58;;
55314;SDS011;41619;42.816;23.226;2022-10-24T16:01:46;54.65;;;17.02;;
55314;SDS011;41619;42.816;23.226;2022-10-24T16:04:15;52.33;;;15.48;;
55314;SDS011;41619;42.816;23.226;2022-10-24T16:06:41;55.10;;;15.90;;
55314;SDS011;41619;42.816;23.226;2022-10-24T16:09:14;58.50;;;17.80;;
55314;SDS011;41619;42.816;23.226;2022-10-24T16:11:41;49.05;;;16.85;;
55314;SDS011;41619;42.816;23.226;2022-10-24T16:14:06;47.90;;;15.88;;
55314;SDS011;41619;42.816;23.226;2022-10-24T16:16:34;54.67;;;19.20;;
55314;SDS011;41619;42.816;23.226;2022-10-24T16:18:59;58.00;;;21.98;;
55314;SDS011;41619;42.816;23.226;2022-10-24T16:21:24;51.25;;;20.75;;
55314;SDS011;41619;42.816;23.226;2022-10-24T16:23:50;49.35;;;20.58;;
55314;SDS011;41619;42.816;23.226;2022-10-24T16:26:15;58.83;;;21.30;;
55314;SDS011;41619;42.816;23.226;2022-10-24T16:28:41;85.88;;;27.05;;
55314;SDS011;41619;42.816;23.226;2022-10-24T16:31:06;78.85;;;29.23;;
55314;SDS011;41619;42.816;23.226;2022-10-24T16:33:32;71.93;;;29.15;;
55314;SDS011;41619;42.816;23.226;2022-10-24T16:35:58;64.93;;;27.90;;
55314;SDS011;41619;42.816;23.226;2022-10-24T16:38:24;64.78;;;25.58;;
55314;SDS011;41619;42.816;23.226;2022-10-24T16:40:49;62.78;;;22.33;;
55314;SDS011;41619;42.816;23.226;2022-10-24T16:43:16;54.95;;;22.08;;
55314;SDS011;41619;42.816;23.226;2022-10-24T16:45:43;67.43;;;22.42;;
55314;SDS011;41619;42.816;23.226;2022-10-24T16:48:11;60.03;;;21.85;;
55314;SDS011;41619;42.816;23.226;2022-10-24T16:50:38;61.92;;;19.92;;
55314;SDS011;41619;42.816;23.226;2022-10-24T16:53:05;55.80;;;19.48;;
55314;SDS011;41619;42.816;23.226;2022-10-24T16:55:32;48.03;;;16.73;;
55314;SDS011;41619;42.816;23.226;2022-10-24T16:57:58;61.75;;;17.13;;
55314;SDS011;41619;42.816;23.226;2022-10-24T17:00:24;52.92;;;13.00;;
55314;SDS011;41619;42.816;23.226;2022-10-24T17:02:50;47.97;;;13.18;;